createdAt,value
2019-06-26T00:00:18.682Z,19.10
2019-06-26T00:02:49.365Z,19.20
2019-06-26T00:05:19.847Z,19.20
2019-06-26T00:07:50.405Z,19.20
2019-06-26T00:10:20.799Z,19.10
2019-06-26T00:12:52.748Z,19.00
2019-06-26T00:15:22.767Z,19.00
2019-06-26T00:17:53.046Z,19.00
2019-06-26T00:20:23.482Z,19.00
2019-06-26T00:22:53.811Z,19.00
2019-06-26T00:25:24.027Z,19.00
2019-06-26T00:27:54.426Z,18.90
2019-06-26T00:30:25.702Z,18.80
2019-06-26T00:32:55.925Z,18.80
2019-06-26T00:35:26.131Z,18.80
2019-06-26T00:37:56.361Z,18.80
2019-06-26T00:40:26.831Z,18.80
2019-06-26T00:42:57.049Z,18.80
2019-06-26T00:45:27.442Z,18.70
2019-06-26T00:47:57.892Z,18.60
2019-06-26T00:50:28.035Z,18.60
2019-06-26T00:52:58.539Z,18.50
2019-06-26T00:55:28.977Z,18.50
2019-06-26T00:57:59.302Z,18.50
2019-06-26T01:00:35.027Z,18.50
2019-06-26T01:03:05.828Z,18.50
2019-06-26T01:05:36.095Z,18.60
2019-06-26T01:08:06.284Z,18.60
2019-06-26T01:10:36.602Z,18.70
2019-06-26T01:13:06.780Z,18.70
2019-06-26T01:15:37.076Z,18.60
2019-06-26T01:18:07.273Z,18.70
2019-06-26T01:20:37.601Z,18.70
2019-06-26T01:23:07.866Z,18.60
2019-06-26T01:25:38.092Z,18.50
2019-06-26T01:28:08.291Z,18.40
2019-06-26T01:30:38.758Z,18.30
2019-06-26T01:33:09.081Z,18.30
2019-06-26T01:35:39.449Z,18.20
2019-06-26T01:38:09.955Z,18.10
2019-06-26T01:40:40.071Z,18.20
2019-06-26T01:43:10.311Z,18.20
2019-06-26T01:45:40.672Z,18.30
2019-06-26T01:48:10.998Z,18.40
2019-06-26T01:50:41.275Z,18.50
2019-06-26T01:53:11.837Z,18.50
2019-06-26T01:55:42.051Z,18.50
2019-06-26T01:58:12.344Z,18.50
2019-06-26T02:00:42.703Z,18.50
2019-06-26T02:03:13.168Z,18.50
2019-06-26T02:05:43.355Z,18.40
2019-06-26T02:08:13.844Z,18.40
2019-06-26T02:10:44.589Z,18.30
2019-06-26T02:13:15.042Z,18.30
2019-06-26T02:15:45.403Z,18.20
2019-06-26T02:18:34.480Z,18.20
2019-06-26T02:21:05.238Z,18.10
2019-06-26T02:23:35.428Z,18.10
2019-06-26T02:26:06.270Z,18.20
2019-06-26T02:28:36.511Z,18.30
2019-06-26T02:31:06.728Z,18.30
2019-06-26T02:33:37.063Z,18.20
2019-06-26T02:36:07.435Z,18.00
2019-06-26T02:38:38.608Z,18.00
2019-06-26T02:41:09.004Z,17.90
2019-06-26T02:43:39.186Z,17.80
2019-06-26T02:46:09.306Z,17.60
2019-06-26T02:48:39.591Z,17.60
2019-06-26T02:51:10.116Z,17.70
2019-06-26T02:53:40.338Z,17.70
2019-06-26T02:56:10.539Z,17.80
2019-06-26T02:58:40.684Z,17.70
2019-06-26T03:01:11.195Z,17.70
2019-06-26T03:03:41.378Z,17.60
2019-06-26T03:06:11.463Z,17.50
2019-06-26T03:08:41.876Z,17.40
2019-06-26T03:11:12.305Z,17.40
2019-06-26T03:13:42.860Z,17.30
2019-06-26T03:16:13.372Z,17.30
2019-06-26T03:18:45.144Z,17.30
2019-06-26T03:21:16.612Z,17.40
2019-06-26T03:23:46.843Z,17.40
2019-06-26T03:26:17.299Z,17.40
2019-06-26T03:28:47.476Z,17.50
2019-06-26T03:31:17.903Z,17.40
2019-06-26T03:33:48.207Z,17.30
2019-06-26T03:36:18.424Z,17.30
2019-06-26T03:38:48.647Z,17.30
2019-06-26T03:41:18.823Z,17.30
2019-06-26T03:43:49.178Z,17.40
2019-06-26T03:46:19.428Z,17.40
2019-06-26T03:48:49.563Z,17.30
2019-06-26T03:51:20.842Z,17.30
2019-06-26T03:53:51.483Z,17.30
2019-06-26T03:56:21.669Z,17.20
2019-06-26T03:58:52.086Z,17.30
2019-06-26T04:01:22.330Z,17.30
2019-06-26T04:03:52.612Z,17.30
2019-06-26T04:06:23.006Z,17.30
2019-06-26T04:08:59.204Z,17.40
2019-06-26T04:11:29.504Z,17.50
2019-06-26T04:13:59.740Z,17.60
2019-06-26T04:16:30.050Z,17.70
2019-06-26T04:19:01.385Z,17.80
2019-06-26T04:21:31.930Z,17.80
2019-06-26T04:24:03.187Z,17.90
2019-06-26T04:26:33.639Z,17.90
2019-06-26T04:29:05.268Z,17.90
2019-06-26T04:31:35.654Z,18.00
2019-06-26T04:34:06.869Z,18.10
2019-06-26T04:36:37.876Z,18.10
2019-06-26T04:39:08.452Z,18.10
2019-06-26T04:41:38.842Z,18.20
2019-06-26T04:44:09.068Z,18.20
2019-06-26T04:46:39.534Z,18.30
2019-06-26T04:49:09.733Z,18.40
2019-06-26T04:51:39.948Z,19.70
2019-06-26T04:54:10.149Z,20.00
2019-06-26T04:56:40.496Z,20.80
2019-06-26T04:59:10.786Z,21.10
2019-06-26T05:01:41.220Z,21.10
2019-06-26T05:04:11.678Z,20.90
2019-06-26T05:06:41.886Z,20.80
2019-06-26T05:09:12.152Z,20.50
2019-06-26T05:11:42.367Z,20.80
2019-06-26T05:14:12.807Z,21.00
2019-06-26T05:16:43.030Z,21.10
2019-06-26T05:19:13.238Z,21.20
2019-06-26T05:21:43.829Z,21.00
2019-06-26T05:24:14.463Z,21.00
2019-06-26T05:26:50.010Z,21.10
2019-06-26T05:29:20.266Z,21.10
2019-06-26T05:31:50.699Z,21.00
2019-06-26T05:34:21.020Z,21.00
2019-06-26T05:36:51.327Z,21.10
2019-06-26T05:39:21.884Z,21.00
2019-06-26T05:41:52.110Z,21.00
2019-06-26T05:44:22.314Z,21.00
2019-06-26T05:46:53.158Z,21.00
2019-06-26T05:49:23.333Z,21.10
2019-06-26T05:51:53.928Z,21.20
2019-06-26T05:54:24.175Z,21.20
2019-06-26T05:56:54.414Z,21.40
2019-06-26T05:59:24.755Z,21.50
2019-06-26T06:01:56.949Z,21.70
2019-06-26T06:04:27.415Z,21.70
2019-06-26T06:06:57.918Z,21.80
2019-06-26T06:09:28.281Z,21.90
2019-06-26T06:11:59.068Z,22.00
2019-06-26T06:14:29.265Z,22.10
2019-06-26T06:16:59.507Z,22.10
2019-06-26T06:19:29.914Z,22.30
2019-06-26T06:22:00.162Z,22.40
2019-06-26T06:24:30.302Z,22.60
2019-06-26T06:27:00.471Z,22.70
2019-06-26T06:29:31.170Z,22.80
2019-06-26T06:32:01.273Z,22.90
2019-06-26T06:34:31.960Z,22.90
2019-06-26T06:37:02.147Z,23.10
2019-06-26T06:39:33.955Z,23.30
2019-06-26T06:42:05.267Z,23.40
2019-06-26T06:44:36.863Z,23.50
2019-06-26T06:47:08.998Z,23.70
2019-06-26T06:49:39.220Z,23.70
2019-06-26T06:52:09.614Z,23.80
2019-06-26T06:54:39.968Z,23.90
2019-06-26T06:57:10.244Z,24.00
2019-06-26T06:59:40.458Z,24.10
2019-06-26T07:02:10.663Z,24.20
2019-06-26T07:04:41.109Z,24.30
2019-06-26T07:07:11.555Z,24.30
2019-06-26T07:09:41.753Z,24.40
2019-06-26T07:12:12.331Z,24.30
2019-06-26T07:14:42.804Z,24.50
2019-06-26T07:17:20.525Z,24.80
2019-06-26T07:19:45.221Z,24.80
2019-06-26T07:22:15.380Z,24.90
2019-06-26T07:24:45.569Z,25.00
2019-06-26T07:27:15.751Z,25.10
2019-06-26T07:29:46.309Z,25.30
2019-06-26T07:32:16.623Z,25.20
2019-06-26T07:34:46.726Z,25.10
2019-06-26T07:37:17.432Z,25.50
2019-06-26T07:39:47.560Z,25.80
2019-06-26T07:42:17.677Z,25.90
2019-06-26T07:44:47.802Z,25.60
2019-06-26T07:47:23.551Z,25.90
2019-06-26T07:49:51.324Z,26.10
2019-06-26T07:52:21.520Z,26.30
2019-06-26T07:54:51.800Z,26.40
2019-06-26T07:57:21.992Z,26.50
2019-06-26T07:59:52.406Z,26.50
2019-06-26T08:02:22.565Z,26.50
2019-06-26T08:04:52.752Z,26.60
2019-06-26T08:07:22.947Z,26.60
2019-06-26T08:09:53.245Z,26.90
2019-06-26T08:12:23.715Z,26.90
2019-06-26T08:14:53.927Z,27.10
2019-06-26T08:17:24.517Z,27.30
2019-06-26T08:19:54.782Z,27.30
2019-06-26T08:22:25.161Z,27.30
2019-06-26T08:24:55.453Z,27.30
2019-06-26T08:27:25.667Z,27.50
2019-06-26T08:29:55.855Z,27.90
2019-06-26T08:32:26.222Z,28.10
2019-06-26T08:34:57.014Z,28.20
2019-06-26T08:37:27.434Z,28.20
2019-06-26T08:39:57.695Z,28.50
2019-06-26T08:42:27.876Z,28.60
2019-06-26T08:44:58.097Z,28.60
2019-06-26T08:47:28.527Z,28.60
2019-06-26T08:49:59.064Z,28.60
2019-06-26T08:52:29.516Z,28.70
2019-06-26T08:55:08.870Z,28.50
2019-06-26T08:57:38.988Z,28.60
2019-06-26T09:00:09.625Z,28.70
2019-06-26T09:02:41.185Z,28.80
2019-06-26T09:05:13.673Z,28.90
2019-06-26T09:07:44.076Z,29.10
2019-06-26T09:10:14.969Z,29.10
2019-06-26T09:12:45.454Z,29.30
2019-06-26T09:15:16.104Z,29.20
2019-06-26T09:17:46.463Z,29.40
2019-06-26T09:20:22.618Z,29.40
2019-06-26T09:22:52.881Z,29.40
2019-06-26T09:25:23.142Z,29.70
2019-06-26T09:27:53.932Z,30.00
2019-06-26T09:30:29.181Z,30.30
2019-06-26T09:32:59.821Z,29.90
2019-06-26T09:35:29.919Z,30.10
2019-06-26T09:38:00.265Z,30.40
2019-06-26T09:40:32.133Z,30.60
2019-06-26T09:43:02.738Z,30.80
2019-06-26T09:45:33.024Z,30.80
2019-06-26T09:48:03.208Z,30.80
2019-06-26T09:50:33.660Z,30.70
2019-06-26T09:53:05.421Z,30.80
2019-06-26T09:55:35.961Z,30.90
2019-06-26T09:58:06.344Z,31.30
2019-06-26T10:00:37.204Z,31.20
2019-06-26T10:03:07.709Z,31.60
2019-06-26T10:05:39.250Z,31.30
2019-06-26T10:08:10.009Z,31.50
2019-06-26T10:10:40.420Z,31.20
2019-06-26T10:13:10.911Z,31.60
2019-06-26T10:15:41.184Z,31.70
2019-06-26T10:18:11.415Z,31.80
2019-06-26T10:20:42.310Z,31.90
2019-06-26T10:23:12.525Z,32.30
2019-06-26T10:25:43.961Z,32.30
2019-06-26T10:28:14.154Z,32.30
2019-06-26T10:30:44.382Z,32.50
2019-06-26T10:33:15.817Z,32.90
2019-06-26T10:35:46.054Z,33.20
2019-06-26T10:38:16.209Z,33.00
2019-06-26T10:40:46.315Z,33.10
2019-06-26T10:43:16.471Z,33.30
2019-06-26T10:45:46.657Z,34.10
2019-06-26T10:48:17.161Z,34.20
2019-06-26T10:50:51.188Z,34.20
2019-06-26T10:53:19.615Z,34.50
2019-06-26T10:55:50.292Z,34.50
2019-06-26T10:58:22.080Z,34.30
2019-06-26T11:00:52.310Z,34.60
2019-06-26T11:03:23.126Z,35.00
2019-06-26T11:05:53.242Z,35.00
2019-06-26T11:08:23.482Z,35.30
2019-06-26T11:10:53.706Z,35.80
2019-06-26T11:13:24.167Z,35.70
2019-06-26T11:15:54.383Z,36.00
2019-06-26T11:18:24.569Z,35.60
2019-06-26T11:20:55.314Z,35.20
2019-06-26T11:23:25.539Z,35.40
2019-06-26T11:25:55.649Z,35.70
2019-06-26T11:28:26.140Z,36.50
2019-06-26T11:30:56.398Z,36.10
2019-06-26T11:33:26.983Z,35.90
2019-06-26T11:35:57.166Z,35.80
2019-06-26T11:38:27.370Z,36.60
2019-06-26T11:40:57.507Z,36.50
2019-06-26T11:43:27.694Z,35.80
2019-06-26T11:45:58.414Z,36.50
2019-06-26T11:48:28.579Z,36.50
2019-06-26T11:50:59.110Z,36.50
2019-06-26T11:53:29.285Z,37.20
2019-06-26T11:55:59.759Z,37.40
2019-06-26T11:58:30.136Z,37.40
2019-06-26T12:01:00.324Z,37.80
2019-06-26T12:03:30.792Z,38.10
2019-06-26T12:06:15.427Z,38.40
2019-06-26T12:08:33.469Z,38.20
2019-06-26T12:11:03.740Z,38.50
2019-06-26T12:13:34.534Z,39.20
2019-06-26T12:16:04.692Z,39.30
2019-06-26T12:18:36.190Z,39.20
2019-06-26T12:21:07.240Z,39.50
2019-06-26T12:23:37.360Z,40.10
2019-06-26T12:26:07.545Z,40.30
2019-06-26T12:28:37.680Z,40.60
2019-06-26T12:31:08.263Z,41.00
2019-06-26T12:33:40.540Z,41.10
2019-06-26T12:36:11.425Z,41.20
2019-06-26T12:38:41.538Z,40.30
2019-06-26T12:41:12.905Z,39.90
2019-06-26T12:43:43.561Z,38.80
2019-06-26T12:46:13.816Z,40.00
2019-06-26T12:48:43.925Z,40.10
2019-06-26T12:51:14.152Z,41.60
2019-06-26T12:53:44.846Z,42.10
2019-06-26T12:56:15.642Z,42.40
2019-06-26T12:58:45.863Z,42.00
2019-06-26T13:01:16.537Z,42.30
2019-06-26T13:03:46.989Z,43.20
2019-06-26T13:06:17.871Z,43.30
2019-06-26T13:08:48.302Z,43.60
2019-06-26T13:11:18.792Z,43.30
2019-06-26T13:14:02.181Z,43.50
2019-06-26T13:16:22.369Z,43.80
2019-06-26T13:18:52.726Z,44.30
2019-06-26T13:21:22.961Z,43.50
2019-06-26T13:23:53.170Z,42.10
2019-06-26T13:26:23.661Z,42.90
2019-06-26T13:28:53.889Z,43.80
2019-06-26T13:31:24.064Z,43.30
2019-06-26T13:33:54.273Z,44.00
2019-06-26T13:36:24.758Z,44.10
2019-06-26T13:38:55.339Z,45.50
2019-06-26T13:41:25.652Z,45.00
2019-06-26T13:43:59.150Z,44.50
2019-06-26T13:46:28.012Z,44.60
2019-06-26T13:48:58.187Z,45.50
2019-06-26T13:51:28.860Z,45.50
2019-06-26T13:53:59.182Z,45.70
2019-06-26T13:56:29.696Z,45.30
2019-06-26T13:59:00.106Z,45.50
2019-06-26T14:01:31.527Z,44.90
2019-06-26T14:04:02.020Z,45.10
2019-06-26T14:06:32.581Z,45.50
2019-06-26T14:09:03.126Z,45.70
2019-06-26T14:11:33.977Z,45.30
2019-06-26T14:14:04.462Z,45.60
2019-06-26T14:16:35.308Z,45.90
2019-06-26T14:19:06.431Z,46.00
2019-06-26T14:21:36.978Z,43.80
2019-06-26T14:24:07.212Z,45.10
2019-06-26T14:26:37.460Z,45.60
2019-06-26T14:29:20.535Z,46.20
2019-06-26T14:31:40.112Z,44.40
2019-06-26T14:34:10.846Z,45.80
2019-06-26T14:36:41.079Z,44.50
2019-06-26T14:39:11.348Z,46.00
2019-06-26T14:41:41.555Z,46.20
2019-06-26T14:44:12.064Z,46.60
2019-06-26T14:46:42.589Z,45.90
2019-06-26T14:49:13.070Z,43.00
2019-06-26T14:51:47.448Z,43.80
2019-06-26T14:54:15.512Z,45.70
2019-06-26T14:56:46.174Z,45.80
2019-06-26T14:59:16.370Z,44.30
2019-06-26T15:01:46.595Z,45.50
2019-06-26T15:04:17.135Z,44.90
2019-06-26T15:06:47.377Z,45.20
2019-06-26T15:09:17.660Z,44.30
2019-06-26T15:11:48.094Z,43.70
2019-06-26T15:14:18.390Z,43.50
2019-06-26T15:16:48.676Z,42.40
2019-06-26T15:19:19.657Z,45.00
2019-06-26T15:21:58.350Z,46.00
2019-06-26T15:24:22.549Z,45.50
2019-06-26T15:26:52.725Z,42.20
2019-06-26T15:29:23.293Z,42.80
2019-06-26T15:31:53.431Z,43.00
2019-06-26T15:34:26.253Z,43.30
2019-06-26T15:36:55.497Z,44.60
2019-06-26T15:39:25.713Z,43.60
2019-06-26T15:41:56.230Z,43.10
2019-06-26T15:44:26.548Z,42.80
2019-06-26T15:46:56.851Z,43.50
2019-06-26T15:49:27.168Z,41.30
2019-06-26T15:52:05.319Z,41.30
2019-06-26T15:54:29.301Z,42.50
2019-06-26T15:56:59.506Z,43.80
2019-06-26T15:59:31.175Z,44.90
2019-06-26T16:02:01.520Z,46.40
2019-06-26T16:04:34.981Z,46.70
2019-06-26T16:07:03.645Z,45.70
2019-06-26T16:09:34.174Z,45.10
2019-06-26T16:12:04.343Z,46.70
2019-06-26T16:14:34.544Z,44.90
2019-06-26T16:17:13.594Z,42.70
2019-06-26T16:19:43.852Z,43.10
2019-06-26T16:22:30.631Z,42.40
2019-06-26T16:24:46.254Z,41.80
2019-06-26T16:27:16.539Z,42.20
2019-06-26T16:29:48.610Z,42.10
2019-06-26T16:32:18.839Z,41.20
2019-06-26T16:34:50.606Z,41.20
2019-06-26T16:37:21.018Z,40.70
2019-06-26T16:39:51.540Z,40.40
2019-06-26T16:42:22.140Z,40.70
2019-06-26T16:44:52.532Z,42.00
2019-06-26T16:47:22.741Z,42.40
2019-06-26T16:49:52.968Z,42.30
2019-06-26T16:52:23.425Z,42.40
2019-06-26T16:54:54.941Z,43.20
2019-06-26T16:57:25.507Z,44.20
2019-06-26T17:00:08.956Z,43.30
2019-06-26T17:02:27.499Z,41.90
2019-06-26T17:04:57.960Z,42.30
2019-06-26T17:07:28.463Z,42.10
2019-06-26T17:09:58.724Z,42.90
2019-06-26T17:12:30.097Z,43.10
2019-06-26T17:15:04.032Z,42.70
2019-06-26T17:17:32.689Z,44.00
2019-06-26T17:20:03.255Z,44.20
2019-06-26T17:22:33.668Z,44.50
2019-06-26T17:25:03.908Z,44.60
2019-06-26T17:27:34.101Z,44.30
2019-06-26T17:30:05.250Z,43.90
2019-06-26T17:32:35.574Z,43.70
2019-06-26T17:35:06.345Z,43.30
2019-06-26T17:37:36.783Z,43.10
2019-06-26T17:40:08.999Z,43.40
2019-06-26T17:42:39.259Z,43.10
2019-06-26T17:45:09.918Z,42.10
2019-06-26T17:47:40.159Z,41.30
2019-06-26T17:50:11.007Z,41.40
2019-06-26T17:52:41.220Z,41.60
2019-06-26T17:55:12.053Z,41.70
2019-06-26T17:57:42.301Z,41.80
2019-06-26T18:00:15.585Z,41.70
2019-06-26T18:02:46.274Z,41.70
2019-06-26T18:05:16.743Z,41.40
2019-06-26T18:07:46.888Z,40.90
2019-06-26T18:10:17.522Z,40.50
2019-06-26T18:12:48.950Z,40.10
2019-06-26T18:15:19.371Z,39.40
2019-06-26T18:17:50.136Z,38.80
2019-06-26T18:20:22.390Z,38.10
2019-06-26T18:23:06.379Z,37.50
2019-06-26T18:25:25.200Z,37.10
2019-06-26T18:27:55.413Z,36.40
2019-06-26T18:30:25.754Z,35.90
2019-06-26T18:32:56.399Z,35.60
2019-06-26T18:35:26.884Z,35.10
2019-06-26T18:37:57.297Z,34.60
2019-06-26T18:40:28.280Z,34.10
2019-06-26T18:42:58.943Z,33.50
2019-06-26T18:45:29.157Z,32.70
2019-06-26T18:48:00.066Z,32.10
2019-06-26T18:50:30.378Z,31.60
2019-06-26T18:53:00.696Z,31.20
2019-06-26T18:55:30.981Z,31.10
2019-06-26T18:58:01.206Z,30.90
2019-06-26T19:00:31.435Z,30.60
2019-06-26T19:03:01.609Z,30.40
2019-06-26T19:05:33.467Z,30.10
2019-06-26T19:08:03.998Z,29.70
2019-06-26T19:10:34.303Z,29.40
2019-06-26T19:13:04.523Z,29.10
2019-06-26T19:15:34.992Z,28.80
2019-06-26T19:18:05.186Z,28.70
2019-06-26T19:20:35.451Z,28.50
2019-06-26T19:23:08.010Z,28.30
2019-06-26T19:25:38.316Z,28.20
2019-06-26T19:28:10.286Z,28.10
2019-06-26T19:30:40.410Z,28.00
2019-06-26T19:33:10.688Z,27.90
2019-06-26T19:35:43.057Z,27.90
2019-06-26T19:38:19.990Z,27.80
2019-06-26T19:40:50.339Z,27.70
2019-06-26T19:43:20.599Z,27.60
2019-06-26T19:45:50.895Z,27.50
2019-06-26T19:48:22.299Z,27.40
2019-06-26T19:50:52.512Z,27.30
2019-06-26T19:53:22.743Z,27.10
2019-06-26T19:55:57.354Z,27.10
2019-06-26T19:58:28.106Z,26.80
2019-06-26T20:01:00.325Z,26.70
2019-06-26T20:03:35.085Z,26.60
2019-06-26T20:06:05.773Z,26.50
2019-06-26T20:08:48.603Z,26.30
2019-06-26T20:11:08.538Z,26.30
2019-06-26T20:13:38.806Z,26.30
2019-06-26T20:16:09.369Z,26.20
2019-06-26T20:18:39.600Z,26.20
2019-06-26T20:21:09.876Z,26.10
2019-06-26T20:23:40.285Z,26.10
2019-06-26T20:26:10.528Z,26.00
2019-06-26T20:28:43.326Z,26.10
2019-06-26T20:31:13.859Z,26.10
2019-06-26T20:33:44.368Z,26.10
2019-06-26T20:36:14.607Z,26.00
2019-06-26T20:38:44.880Z,26.00
2019-06-26T20:41:15.531Z,25.90
2019-06-26T20:43:45.750Z,25.80
2019-06-26T20:46:16.004Z,25.70
2019-06-26T20:48:46.437Z,25.80
2019-06-26T20:51:16.657Z,25.70
2019-06-26T20:53:46.868Z,25.70
2019-06-26T20:56:17.445Z,25.60
2019-06-26T20:58:47.636Z,25.50
2019-06-26T21:01:17.769Z,25.40
2019-06-26T21:03:48.115Z,25.30
2019-06-26T21:06:18.506Z,25.20
2019-06-26T21:08:48.762Z,25.10
2019-06-26T21:11:19.227Z,25.00
2019-06-26T21:13:51.911Z,24.90
2019-06-26T21:16:22.211Z,24.90
2019-06-26T21:18:52.653Z,25.00
2019-06-26T21:21:23.037Z,25.00
2019-06-26T21:23:53.703Z,25.00
2019-06-26T21:26:23.925Z,24.80
2019-06-26T21:28:54.165Z,24.80
2019-06-26T21:31:24.690Z,24.70
2019-06-26T21:33:54.921Z,24.60
2019-06-26T21:36:25.310Z,24.50
2019-06-26T21:38:55.630Z,24.50
2019-06-26T21:41:25.774Z,24.40
2019-06-26T21:43:55.965Z,24.30
2019-06-26T21:46:26.384Z,24.30
2019-06-26T21:48:56.741Z,24.20
2019-06-26T21:51:27.129Z,24.20
2019-06-26T21:53:57.892Z,24.10
2019-06-26T21:56:46.235Z,24.00
2019-06-26T21:59:34.258Z,23.80
2019-06-26T22:02:22.501Z,23.70
2019-06-26T22:04:54.933Z,23.40
2019-06-26T22:07:29.748Z,23.30
2019-06-26T22:10:18.013Z,23.30
2019-06-26T22:12:48.284Z,23.30
2019-06-26T22:15:18.630Z,23.40
2019-06-26T22:17:51.293Z,23.50
2019-06-26T22:20:22.117Z,23.70
2019-06-26T22:22:52.321Z,23.70
2019-06-26T22:25:23.911Z,23.80
2019-06-26T22:27:54.246Z,23.70
2019-06-26T22:30:25.341Z,23.70
2019-06-26T22:32:55.804Z,23.70
2019-06-26T22:35:30.938Z,23.60
2019-06-26T22:38:03.313Z,23.60
2019-06-26T22:40:33.889Z,23.60
2019-06-26T22:43:04.546Z,23.50
2019-06-26T22:45:34.910Z,23.40
2019-06-26T22:48:05.121Z,23.30
2019-06-26T22:50:35.287Z,23.30
2019-06-26T22:53:05.478Z,23.30
2019-06-26T22:55:35.841Z,23.30
2019-06-26T22:58:05.986Z,23.30
2019-06-26T23:00:36.157Z,23.20
2019-06-26T23:03:06.490Z,23.30
2019-06-26T23:05:36.903Z,23.20
2019-06-26T23:08:07.270Z,23.20
2019-06-26T23:10:37.975Z,23.20
2019-06-26T23:13:09.834Z,23.20
2019-06-26T23:15:40.350Z,23.10
2019-06-26T23:18:10.609Z,23.10
2019-06-26T23:20:41.540Z,23.10
2019-06-26T23:23:12.328Z,23.00
2019-06-26T23:25:42.519Z,23.00
2019-06-26T23:28:12.907Z,23.00
2019-06-26T23:30:42.971Z,23.00
2019-06-26T23:33:13.151Z,22.90
2019-06-26T23:35:43.469Z,22.80
2019-06-26T23:38:26.366Z,22.70
2019-06-26T23:40:56.553Z,22.60
2019-06-26T23:43:27.270Z,22.50
2019-06-26T23:45:57.734Z,22.40
2019-06-26T23:48:28.151Z,22.30
2019-06-26T23:50:58.372Z,22.30
2019-06-26T23:53:28.517Z,22.30
2019-06-26T23:55:58.777Z,22.30
2019-06-26T23:58:29.161Z,22.20
